createdAt,value
2018-09-29T00:00:25.781Z,17.30
2018-09-29T00:01:25.765Z,22.40
2018-09-29T00:02:25.737Z,17.60
2018-09-29T00:03:25.727Z,20.00
2018-09-29T00:04:25.709Z,18.20
2018-09-29T00:05:25.724Z,20.50
2018-09-29T00:06:25.699Z,21.00
2018-09-29T00:07:25.678Z,19.20
2018-09-29T00:08:25.674Z,19.30
2018-09-29T00:09:25.679Z,17.20
2018-09-29T00:10:25.650Z,24.90
2018-09-29T00:11:25.662Z,22.60
2018-09-29T00:12:25.661Z,19.60
2018-09-29T00:13:25.617Z,17.70
2018-09-29T00:14:25.610Z,18.70
2018-09-29T00:15:25.617Z,14.90
2018-09-29T00:16:25.610Z,20.00
2018-09-29T00:17:25.574Z,17.70
2018-09-29T00:18:25.565Z,19.10
2018-09-29T00:19:25.551Z,20.70
2018-09-29T00:20:25.566Z,26.00
2018-09-29T00:21:25.554Z,20.10
2018-09-29T00:22:25.523Z,22.00
2018-09-29T00:23:25.515Z,15.70
2018-09-29T00:24:25.498Z,18.50
2018-09-29T00:25:25.507Z,18.40
2018-09-29T00:26:25.496Z,23.30
2018-09-29T00:27:25.466Z,18.20
2018-09-29T00:28:25.461Z,15.90
2018-09-29T00:29:25.450Z,16.20
2018-09-29T00:30:25.460Z,15.70
2018-09-29T00:31:25.423Z,13.40
2018-09-29T00:32:25.431Z,12.70
2018-09-29T00:33:25.406Z,12.10
2018-09-29T00:34:25.414Z,15.30
2018-09-29T00:35:25.386Z,14.50
2018-09-29T00:36:25.394Z,14.80
2018-09-29T00:37:25.361Z,14.90
2018-09-29T00:38:25.347Z,15.80
2018-09-29T00:39:25.338Z,13.30
2018-09-29T00:40:25.331Z,18.40
2018-09-29T00:41:25.324Z,20.10
2018-09-29T00:42:25.329Z,20.20
2018-09-29T00:43:25.302Z,15.40
2018-09-29T00:44:25.286Z,10.50
2018-09-29T00:45:25.277Z,15.70
2018-09-29T00:46:25.286Z,13.90
2018-09-29T00:47:25.256Z,12.90
2018-09-29T00:48:25.268Z,17.20
2018-09-29T00:49:25.230Z,14.80
2018-09-29T00:50:25.228Z,12.20
2018-09-29T00:51:25.240Z,16.60
2018-09-29T00:52:25.203Z,12.20
2018-09-29T00:53:25.194Z,14.50
2018-09-29T00:54:25.184Z,18.70
2018-09-29T00:55:25.171Z,13.30
2018-09-29T00:56:25.157Z,13.60
2018-09-29T00:57:25.169Z,12.10
2018-09-29T00:58:25.135Z,16.70
2018-09-29T00:59:25.130Z,17.50
2018-09-29T01:00:25.120Z,12.70
2018-09-29T01:01:25.111Z,16.40
2018-09-29T01:02:25.093Z,14.30
2018-09-29T01:03:25.103Z,11.00
2018-09-29T01:04:25.076Z,15.50
2018-09-29T01:05:25.067Z,13.10
2018-09-29T01:06:25.056Z,14.10
2018-09-29T01:07:25.077Z,9.80
2018-09-29T01:08:25.072Z,18.00
2018-09-29T01:09:25.017Z,15.50
2018-09-29T01:10:25.008Z,11.40
2018-09-29T01:11:24.998Z,15.00
2018-09-29T01:12:24.990Z,10.20
2018-09-29T01:13:24.981Z,11.20
2018-09-29T01:14:24.997Z,15.20
2018-09-29T01:15:24.958Z,18.00
2018-09-29T01:16:24.944Z,16.80
2018-09-29T01:17:24.936Z,19.90
2018-09-29T01:18:24.929Z,17.20
2018-09-29T01:19:24.918Z,16.30
2018-09-29T01:20:24.933Z,17.80
2018-09-29T01:21:24.892Z,14.80
2018-09-29T01:22:24.878Z,11.50
2018-09-29T01:23:24.874Z,13.40
2018-09-29T01:24:24.862Z,13.50
2018-09-29T01:25:24.871Z,12.90
2018-09-29T01:26:24.869Z,13.00
2018-09-29T01:27:24.838Z,12.00
2018-09-29T01:28:24.829Z,11.60
2018-09-29T01:29:24.805Z,13.50
2018-09-29T01:30:24.823Z,16.30
2018-09-29T01:31:24.803Z,17.40
2018-09-29T01:32:24.783Z,16.00
2018-09-29T01:33:24.769Z,16.00
2018-09-29T01:34:24.756Z,19.10
2018-09-29T01:35:24.748Z,19.50
2018-09-29T01:36:24.757Z,23.10
2018-09-29T01:37:24.745Z,18.00
2018-09-29T01:38:24.715Z,14.70
2018-09-29T01:39:24.703Z,13.60
2018-09-29T01:40:24.691Z,17.90
2018-09-29T01:41:24.695Z,16.70
2018-09-29T01:42:24.671Z,10.60
2018-09-29T01:43:24.661Z,11.90
2018-09-29T01:44:24.672Z,13.60
2018-09-29T01:45:24.644Z,10.80
2018-09-29T01:46:24.663Z,12.60
2018-09-29T01:47:24.618Z,16.10
2018-09-29T01:48:24.606Z,16.10
2018-09-29T01:49:24.591Z,12.90
2018-09-29T01:50:24.589Z,16.30
2018-09-29T01:51:24.699Z,11.50
2018-09-29T01:52:24.580Z,12.40
2018-09-29T01:53:24.561Z,22.30
2018-09-29T01:54:24.539Z,19.90
2018-09-29T01:55:24.535Z,15.10
2018-09-29T01:56:24.541Z,15.20
2018-09-29T01:57:24.515Z,16.60
2018-09-29T01:58:24.511Z,15.50
2018-09-29T01:59:24.512Z,15.10
2018-09-29T02:00:24.478Z,15.90
2018-09-29T02:01:24.480Z,18.10
2018-09-29T02:02:24.471Z,15.60
2018-09-29T02:03:24.465Z,17.80
2018-09-29T02:04:24.454Z,16.60
2018-09-29T02:05:24.428Z,18.50
2018-09-29T02:06:24.413Z,18.70
2018-09-29T02:07:24.427Z,18.30
2018-09-29T02:08:24.395Z,17.10
2018-09-29T02:09:24.385Z,12.70
2018-09-29T02:10:24.374Z,12.70
2018-09-29T02:11:24.362Z,17.30
2018-09-29T02:12:24.357Z,13.40
2018-09-29T02:13:24.353Z,9.80
2018-09-29T02:14:24.325Z,17.10
2018-09-29T02:15:24.317Z,18.00
2018-09-29T02:16:24.309Z,12.90
2018-09-29T02:17:24.300Z,16.90
2018-09-29T02:18:24.306Z,14.80
2018-09-29T02:19:24.276Z,9.50
2018-09-29T02:20:24.264Z,17.00
2018-09-29T02:21:24.251Z,16.10
2018-09-29T02:22:24.279Z,15.70
2018-09-29T02:23:24.237Z,19.60
2018-09-29T02:24:24.223Z,21.20
2018-09-29T02:25:24.208Z,13.90
2018-09-29T02:26:24.198Z,18.30
2018-09-29T02:27:24.189Z,13.60
2018-09-29T02:28:24.201Z,19.20
2018-09-29T02:29:24.217Z,22.40
2018-09-29T02:30:24.165Z,15.70
2018-09-29T02:31:24.149Z,20.70
2018-09-29T02:32:24.137Z,15.60
2018-09-29T02:33:24.123Z,16.00
2018-09-29T02:34:24.135Z,16.40
2018-09-29T02:35:24.129Z,14.90
2018-09-29T02:36:24.098Z,16.90
2018-09-29T02:37:24.089Z,15.30
2018-09-29T02:38:24.070Z,14.90
2018-09-29T02:39:24.064Z,21.80
2018-09-29T02:40:24.070Z,16.20
2018-09-29T02:41:24.074Z,20.80
2018-09-29T02:42:24.037Z,20.10
2018-09-29T02:43:24.027Z,21.80
2018-09-29T02:44:24.016Z,19.40
2018-09-29T02:45:24.009Z,23.00
2018-09-29T02:46:23.986Z,22.20
2018-09-29T02:47:24.000Z,24.60
2018-09-29T02:48:23.972Z,22.40
2018-09-29T02:49:23.963Z,23.40
2018-09-29T02:50:23.956Z,24.80
2018-09-29T02:51:23.942Z,20.00
2018-09-29T02:52:23.940Z,17.70
2018-09-29T02:53:23.919Z,16.30
2018-09-29T02:54:23.925Z,16.80
2018-09-29T02:55:23.894Z,16.90
2018-09-29T02:56:23.900Z,24.50
2018-09-29T02:57:23.869Z,18.80
2018-09-29T02:58:23.863Z,19.40
2018-09-29T02:59:23.873Z,28.30
2018-09-29T03:00:23.841Z,18.80
2018-09-29T03:01:23.855Z,26.90
2018-09-29T03:02:23.822Z,29.70
2018-09-29T03:03:23.810Z,24.60
2018-09-29T03:04:23.801Z,27.70
2018-09-29T03:05:23.782Z,28.30
2018-09-29T03:06:23.795Z,17.50
2018-09-29T03:07:23.770Z,32.30
2018-09-29T03:08:23.760Z,24.60
2018-09-29T03:09:23.763Z,25.80
2018-09-29T03:10:23.751Z,24.40
2018-09-29T03:11:23.723Z,33.40
2018-09-29T03:12:23.714Z,34.00
2018-09-29T03:13:23.731Z,29.20
2018-09-29T03:14:23.696Z,23.60
2018-09-29T03:15:23.683Z,22.90
2018-09-29T03:16:23.676Z,25.00
2018-09-29T03:17:23.660Z,26.10
2018-09-29T03:18:23.647Z,24.50
2018-09-29T03:19:23.764Z,26.20
2018-09-29T03:20:23.647Z,36.30
2018-09-29T03:21:23.621Z,25.60
2018-09-29T03:22:23.615Z,30.80
2018-09-29T03:23:23.598Z,36.80
2018-09-29T03:24:23.608Z,32.30
2018-09-29T03:25:23.571Z,23.60
2018-09-29T03:26:23.570Z,25.80
2018-09-29T03:27:23.580Z,22.00
2018-09-29T03:28:23.542Z,21.80
2018-09-29T03:29:23.529Z,26.00
2018-09-29T03:30:23.536Z,22.30
2018-09-29T03:31:23.585Z,22.90
2018-09-29T03:32:23.502Z,22.30
2018-09-29T03:33:23.511Z,19.90
2018-09-29T03:34:23.486Z,20.30
2018-09-29T03:35:23.470Z,27.10
2018-09-29T03:36:23.470Z,23.10
2018-09-29T03:37:23.462Z,23.20
2018-09-29T03:38:23.436Z,17.80
2018-09-29T03:39:23.425Z,19.30
2018-09-29T03:40:23.420Z,19.40
2018-09-29T03:41:23.429Z,21.50
2018-09-29T03:42:23.396Z,21.80
2018-09-29T03:43:23.383Z,24.00
2018-09-29T03:44:23.376Z,20.90
2018-09-29T03:45:23.394Z,24.10
2018-09-29T03:46:23.356Z,21.90
2018-09-29T03:47:23.344Z,16.50
2018-09-29T03:48:23.333Z,18.80
2018-09-29T03:49:23.331Z,22.30
2018-09-29T03:50:23.308Z,20.70
2018-09-29T03:51:23.317Z,24.30
2018-09-29T03:52:23.290Z,25.50
2018-09-29T03:53:23.284Z,29.90
2018-09-29T03:54:23.270Z,24.50
2018-09-29T03:55:23.259Z,19.70
2018-09-29T03:56:23.276Z,20.00
2018-09-29T03:57:23.233Z,26.80
2018-09-29T03:58:23.229Z,27.50
2018-09-29T03:59:23.240Z,19.40
2018-09-29T04:00:23.202Z,25.20
2018-09-29T04:01:23.190Z,20.40
2018-09-29T04:02:23.181Z,34.80
2018-09-29T04:03:23.170Z,40.80
2018-09-29T04:04:23.180Z,33.10
2018-09-29T04:05:23.155Z,24.80
2018-09-29T04:06:23.164Z,28.70
2018-09-29T04:07:23.131Z,28.50
2018-09-29T04:08:23.141Z,36.90
2018-09-29T04:09:23.107Z,33.70
2018-09-29T04:10:23.097Z,29.10
2018-09-29T04:11:23.097Z,21.60
2018-09-29T04:12:23.077Z,18.90
2018-09-29T04:13:23.087Z,27.50
2018-09-29T04:14:23.053Z,24.00
2018-09-29T04:15:23.044Z,19.50
2018-09-29T04:16:23.061Z,22.90
2018-09-29T04:17:23.045Z,22.30
2018-09-29T04:18:23.017Z,30.50
2018-09-29T04:19:23.020Z,24.00
2018-09-29T04:20:22.991Z,24.50
2018-09-29T04:21:22.977Z,31.60
2018-09-29T04:22:22.986Z,19.80
2018-09-29T04:23:22.989Z,18.50
2018-09-29T04:24:22.950Z,19.40
2018-09-29T04:25:22.943Z,29.60
2018-09-29T04:26:22.933Z,34.40
2018-09-29T04:27:22.919Z,37.50
2018-09-29T04:28:22.927Z,36.60
2018-09-29T04:29:22.910Z,26.70
2018-09-29T04:30:22.890Z,26.00
2018-09-29T04:31:22.879Z,23.00
2018-09-29T04:32:22.864Z,24.10
2018-09-29T04:33:22.856Z,24.80
2018-09-29T04:34:22.860Z,24.50
2018-09-29T04:35:22.833Z,24.00
2018-09-29T04:36:22.824Z,32.90
2018-09-29T04:37:22.816Z,35.50
2018-09-29T04:38:22.805Z,32.30
2018-09-29T04:39:22.812Z,29.50
2018-09-29T04:40:22.778Z,25.20
2018-09-29T04:41:22.764Z,25.30
2018-09-29T04:42:22.754Z,30.30
2018-09-29T04:43:22.747Z,33.10
2018-09-29T04:44:22.757Z,30.90
2018-09-29T04:45:22.765Z,42.50
2018-09-29T04:46:22.717Z,39.50
2018-09-29T04:47:22.705Z,32.70
2018-09-29T04:48:22.716Z,30.60
2018-09-29T04:49:22.704Z,37.60
2018-09-29T04:50:22.677Z,31.40
2018-09-29T04:51:22.665Z,37.10
2018-09-29T04:52:22.678Z,38.90
2018-09-29T04:53:22.656Z,32.90
2018-09-29T04:54:22.661Z,27.40
2018-09-29T04:55:22.619Z,32.10
2018-09-29T04:56:22.613Z,25.50
2018-09-29T04:57:22.601Z,42.60
2018-09-29T04:58:22.592Z,38.10
2018-09-29T04:59:22.601Z,35.50
2018-09-29T05:00:22.576Z,46.40
2018-09-29T05:01:22.571Z,45.80
2018-09-29T05:02:22.556Z,36.30
2018-09-29T05:03:22.541Z,37.10
2018-09-29T05:04:22.566Z,37.40
2018-09-29T05:05:22.514Z,36.40
2018-09-29T05:06:22.506Z,34.80
2018-09-29T05:07:22.491Z,38.30
2018-09-29T05:08:22.489Z,38.40
2018-09-29T05:09:22.492Z,31.50
2018-09-29T05:10:22.462Z,20.50
2018-09-29T05:11:22.466Z,23.40
2018-09-29T05:12:22.441Z,22.70
2018-09-29T05:13:22.436Z,29.80
2018-09-29T05:14:22.435Z,29.30
2018-09-29T05:15:22.422Z,38.30
2018-09-29T05:16:22.412Z,33.60
2018-09-29T05:17:22.389Z,26.90
2018-09-29T05:18:22.377Z,31.80
2018-09-29T05:19:22.364Z,30.70
2018-09-29T05:20:22.381Z,31.70
2018-09-29T05:21:22.350Z,30.20
2018-09-29T05:22:22.338Z,30.70
2018-09-29T05:23:22.345Z,37.20
2018-09-29T05:24:22.325Z,51.10
2018-09-29T05:25:22.365Z,56.10
2018-09-29T05:26:22.302Z,42.10
2018-09-29T05:27:22.292Z,46.30
2018-09-29T05:28:22.277Z,45.80
2018-09-29T05:29:22.264Z,39.10
2018-09-29T05:30:22.272Z,42.00
2018-09-29T05:31:22.362Z,36.70
2018-09-29T05:32:22.250Z,40.90
2018-09-29T05:33:22.217Z,26.20
2018-09-29T05:34:22.209Z,27.90
2018-09-29T05:35:22.222Z,31.40
2018-09-29T05:36:22.183Z,35.30
2018-09-29T05:37:22.177Z,38.50
2018-09-29T05:38:22.243Z,33.60
2018-09-29T05:39:22.156Z,30.60
2018-09-29T05:40:22.223Z,30.10
2018-09-29T05:41:22.136Z,39.90
2018-09-29T05:42:22.125Z,34.70
2018-09-29T05:43:22.116Z,33.50
2018-09-29T05:44:22.099Z,35.30
2018-09-29T05:45:22.167Z,44.20
2018-09-29T05:46:22.124Z,45.40
2018-09-29T05:47:22.126Z,39.20
2018-09-29T05:48:22.113Z,51.10
2018-09-29T05:49:22.070Z,42.80
2018-09-29T05:50:22.059Z,41.90
2018-09-29T05:51:22.023Z,47.80
2018-09-29T05:52:22.020Z,67.70
2018-09-29T05:53:22.008Z,63.30
2018-09-29T05:54:21.998Z,32.50
2018-09-29T05:55:22.012Z,38.60
2018-09-29T05:56:21.975Z,41.60
2018-09-29T05:57:21.973Z,51.60
2018-09-29T05:58:21.954Z,52.60
2018-09-29T05:59:21.960Z,35.70
2018-09-29T06:00:21.940Z,36.40
2018-09-29T06:01:21.921Z,39.00
2018-09-29T06:02:21.918Z,36.40
2018-09-29T06:03:21.902Z,31.40
2018-09-29T06:04:21.907Z,40.60
2018-09-29T06:05:21.956Z,37.60
2018-09-29T06:06:21.895Z,45.00
2018-09-29T06:07:21.939Z,46.10
2018-09-29T06:08:21.894Z,54.80
2018-09-29T06:09:21.835Z,37.60
2018-09-29T06:10:22.018Z,38.90
2018-09-29T06:11:21.826Z,46.40
2018-09-29T06:12:21.810Z,32.90
2018-09-29T06:13:21.934Z,31.10
2018-09-29T06:14:21.835Z,45.90
2018-09-29T06:15:21.775Z,44.00
2018-09-29T06:16:21.779Z,42.10
2018-09-29T06:17:21.792Z,35.20
2018-09-29T06:18:21.742Z,33.10
2018-09-29T06:19:21.730Z,32.90
2018-09-29T06:20:21.725Z,44.30
2018-09-29T06:21:21.729Z,41.90
2018-09-29T06:22:21.699Z,32.20
2018-09-29T06:23:21.691Z,38.50
2018-09-29T06:24:21.729Z,46.50
2018-09-29T06:25:21.738Z,43.70
2018-09-29T06:26:21.679Z,36.10
2018-09-29T06:27:21.677Z,41.50
2018-09-29T06:28:21.692Z,35.90
2018-09-29T06:29:21.705Z,41.50
2018-09-29T06:30:21.613Z,49.90
2018-09-29T06:31:21.611Z,40.90
2018-09-29T06:32:21.594Z,47.40
2018-09-29T06:33:21.592Z,44.60
2018-09-29T06:34:21.644Z,40.60
2018-09-29T06:35:21.591Z,39.00
2018-09-29T06:36:21.546Z,30.40
2018-09-29T06:37:21.535Z,38.00
2018-09-29T06:38:21.528Z,32.20
2018-09-29T06:39:21.520Z,40.10
2018-09-29T06:40:21.502Z,35.20
2018-09-29T06:41:21.513Z,37.40
2018-09-29T06:42:21.489Z,44.20
2018-09-29T06:43:21.485Z,35.90
2018-09-29T06:44:21.468Z,36.20
2018-09-29T06:45:21.456Z,44.50
2018-09-29T06:46:21.471Z,36.70
2018-09-29T06:47:21.436Z,40.10
2018-09-29T06:48:21.418Z,42.40
2018-09-29T06:49:21.427Z,45.80
2018-09-29T06:50:21.431Z,37.10
2018-09-29T06:51:21.476Z,46.70
2018-09-29T06:52:21.400Z,36.60
2018-09-29T06:53:21.370Z,40.00
2018-09-29T06:54:21.389Z,37.90
2018-09-29T06:55:22.059Z,45.00
2018-09-29T06:56:21.345Z,41.40
2018-09-29T06:57:21.327Z,47.10
2018-09-29T06:58:21.338Z,40.20
2018-09-29T06:59:21.308Z,39.60
2018-09-29T07:00:21.303Z,38.10
2018-09-29T07:01:21.306Z,45.10
2018-09-29T07:02:21.275Z,30.30
2018-09-29T07:03:21.258Z,38.40
2018-09-29T07:04:21.256Z,37.20
2018-09-29T07:05:21.248Z,41.90
2018-09-29T07:06:21.263Z,38.50
2018-09-29T07:07:21.233Z,36.60
2018-09-29T07:08:21.207Z,33.10
2018-09-29T07:09:21.209Z,37.10
2018-09-29T07:10:21.277Z,31.40
2018-09-29T07:11:21.230Z,39.20
2018-09-29T07:12:21.187Z,34.00
2018-09-29T07:13:21.155Z,31.50
2018-09-29T07:14:21.183Z,30.10
2018-09-29T07:15:21.128Z,27.70
2018-09-29T07:16:21.125Z,26.70
2018-09-29T07:17:21.111Z,28.60
2018-09-29T07:18:21.101Z,28.50
2018-09-29T07:19:21.111Z,28.70
2018-09-29T07:20:21.077Z,27.70
2018-09-29T07:21:21.071Z,31.10
2018-09-29T07:22:21.075Z,26.80
2018-09-29T07:23:21.081Z,27.00
2018-09-29T07:24:21.043Z,27.20
2018-09-29T07:25:21.061Z,24.00
2018-09-29T07:26:21.015Z,28.20
2018-09-29T07:27:21.017Z,27.20
2018-09-29T07:28:21.000Z,29.00
2018-09-29T07:29:21.018Z,30.10
2018-09-29T07:30:21.009Z,25.50
2018-09-29T07:31:21.042Z,26.60
2018-09-29T07:32:20.988Z,24.60
2018-09-29T07:33:20.938Z,20.60
2018-09-29T07:34:20.946Z,24.10
2018-09-29T07:35:20.914Z,25.00
2018-09-29T07:36:20.918Z,26.60
2018-09-29T07:37:20.900Z,21.60
2018-09-29T07:38:20.890Z,22.10
2018-09-29T07:39:20.898Z,25.30
2018-09-29T07:40:20.863Z,22.90
2018-09-29T07:41:20.957Z,20.30
2018-09-29T07:42:20.847Z,20.50
2018-09-29T07:43:20.837Z,28.60
2018-09-29T07:44:20.835Z,24.40
2018-09-29T07:45:20.830Z,27.00
2018-09-29T07:46:20.803Z,25.40
2018-09-29T07:47:20.786Z,21.70
2018-09-29T07:48:20.783Z,30.50
2018-09-29T07:49:20.904Z,32.40
2018-09-29T07:50:20.776Z,26.10
2018-09-29T07:51:20.753Z,25.50
2018-09-29T07:52:20.771Z,26.80
2018-09-29T07:53:20.748Z,23.00
2018-09-29T07:54:20.712Z,26.10
2018-09-29T07:55:20.727Z,23.90
2018-09-29T07:56:20.699Z,23.60
2018-09-29T07:57:20.703Z,24.80
2018-09-29T07:58:20.713Z,29.20
2018-09-29T07:59:20.756Z,24.20
2018-09-29T08:00:20.702Z,21.00
2018-09-29T08:01:20.684Z,21.60
2018-09-29T08:02:20.632Z,20.40
2018-09-29T08:03:20.645Z,20.00
2018-09-29T08:04:20.602Z,20.10
2018-09-29T08:05:20.607Z,18.80
2018-09-29T08:06:20.612Z,19.70
2018-09-29T08:07:20.588Z,18.10
2018-09-29T08:08:20.566Z,21.20
2018-09-29T08:09:20.579Z,21.90
2018-09-29T08:10:20.546Z,23.30
2018-09-29T08:11:20.541Z,23.70
2018-09-29T08:12:20.603Z,20.10
2018-09-29T08:13:20.567Z,17.50
2018-09-29T08:14:20.584Z,21.50
2018-09-29T08:15:20.492Z,20.30
2018-09-29T08:16:20.475Z,23.20
2018-09-29T08:17:20.500Z,23.00
2018-09-29T08:18:20.459Z,19.10
2018-09-29T08:19:20.443Z,21.20
2018-09-29T08:20:20.464Z,19.50
2018-09-29T08:21:20.423Z,18.00
2018-09-29T08:22:20.432Z,20.30
2018-09-29T08:23:20.409Z,22.10
2018-09-29T08:24:20.409Z,21.10
2018-09-29T08:25:20.378Z,20.40
2018-09-29T08:26:20.373Z,17.60
2018-09-29T08:27:20.373Z,18.60
2018-09-29T08:28:20.402Z,19.10
2018-09-29T08:29:20.338Z,20.20
2018-09-29T08:30:20.344Z,20.50
2018-09-29T08:31:20.313Z,18.50
2018-09-29T08:32:20.380Z,16.80
2018-09-29T08:33:20.322Z,19.50
2018-09-29T08:34:20.332Z,19.50
2018-09-29T08:35:20.323Z,17.60
2018-09-29T08:36:20.358Z,16.40
2018-09-29T08:37:20.384Z,17.30
2018-09-29T08:38:20.277Z,18.80
2018-09-29T08:39:20.254Z,18.10
2018-09-29T08:40:20.242Z,14.80
2018-09-29T08:41:20.256Z,17.10
2018-09-29T08:42:20.284Z,16.30
2018-09-29T08:43:20.218Z,16.50
2018-09-29T08:44:20.219Z,15.70
2018-09-29T08:45:20.181Z,17.10
2018-09-29T08:46:20.214Z,16.50
2018-09-29T08:47:20.200Z,15.80
2018-09-29T08:48:20.334Z,19.50
2018-09-29T08:49:20.119Z,17.80
2018-09-29T08:50:20.107Z,15.20
2018-09-29T08:51:20.100Z,16.70
2018-09-29T08:52:20.094Z,13.50
2018-09-29T08:53:20.209Z,12.00
2018-09-29T08:54:20.087Z,14.20
2018-09-29T08:55:20.088Z,13.10
2018-09-29T08:56:20.100Z,10.80
2018-09-29T08:57:20.123Z,12.30
2018-09-29T08:58:20.061Z,11.40
2018-09-29T08:59:20.045Z,15.20
2018-09-29T09:00:20.003Z,11.10
2018-09-29T09:01:19.996Z,9.80
2018-09-29T09:02:19.983Z,8.50
2018-09-29T09:03:19.965Z,7.50
2018-09-29T09:04:19.961Z,12.40
2018-09-29T09:05:19.967Z,10.40
2018-09-29T09:06:19.947Z,10.80
2018-09-29T09:07:19.929Z,6.60
2018-09-29T09:08:19.929Z,10.20
2018-09-29T09:09:19.923Z,9.40
2018-09-29T09:10:19.890Z,11.40
2018-09-29T09:11:19.893Z,11.10
2018-09-29T09:12:19.872Z,7.40
2018-09-29T09:13:19.884Z,10.50
2018-09-29T09:14:19.855Z,11.80
2018-09-29T09:15:19.841Z,10.70
2018-09-29T09:16:19.842Z,7.70
2018-09-29T09:17:19.873Z,10.30
2018-09-29T09:18:19.827Z,10.00
2018-09-29T09:19:19.800Z,6.20
2018-09-29T09:20:19.790Z,13.40
2018-09-29T09:21:19.773Z,8.60
2018-09-29T09:22:19.758Z,6.80
2018-09-29T09:23:19.784Z,8.00
2018-09-29T09:24:19.797Z,7.80
2018-09-29T09:25:19.734Z,7.90
2018-09-29T09:26:19.723Z,10.40
2018-09-29T09:27:19.711Z,7.70
2018-09-29T09:28:19.715Z,6.10
2018-09-29T09:29:19.685Z,7.40
2018-09-29T09:30:19.719Z,8.30
2018-09-29T09:31:19.667Z,7.70
2018-09-29T09:32:19.702Z,9.10
2018-09-29T09:33:19.690Z,6.90
2018-09-29T09:34:19.653Z,5.90
2018-09-29T09:35:19.883Z,9.40
2018-09-29T09:36:19.619Z,7.80
2018-09-29T09:37:19.677Z,8.60
2018-09-29T09:38:19.734Z,4.20
2018-09-29T09:39:19.588Z,8.60
2018-09-29T09:40:19.603Z,7.80
2018-09-29T09:41:19.558Z,6.90
2018-09-29T09:42:19.545Z,7.70
2018-09-29T09:43:19.550Z,5.20
2018-09-29T09:44:19.540Z,7.70
2018-09-29T09:45:19.524Z,11.70
2018-09-29T09:46:19.530Z,6.40
2018-09-29T09:47:19.493Z,7.10
2018-09-29T09:48:19.501Z,7.40
2018-09-29T09:49:19.526Z,5.70
2018-09-29T09:50:19.464Z,7.10
2018-09-29T09:51:19.478Z,5.50
2018-09-29T09:52:19.547Z,9.40
2018-09-29T09:53:19.862Z,8.30
2018-09-29T09:54:19.415Z,8.40
2018-09-29T09:55:19.404Z,6.90
2018-09-29T09:56:19.404Z,4.80
2018-09-29T09:57:19.419Z,7.10
2018-09-29T09:58:19.380Z,7.80
2018-09-29T09:59:19.425Z,6.60
2018-09-29T10:00:19.450Z,7.50
2018-09-29T10:01:19.368Z,7.30
2018-09-29T10:02:19.425Z,7.60
2018-09-29T10:03:20.403Z,6.70
2018-09-29T10:04:20.610Z,8.50
2018-09-29T10:05:19.304Z,7.70
2018-09-29T10:06:19.437Z,7.20
2018-09-29T10:07:19.274Z,5.80
2018-09-29T10:08:19.372Z,10.10
2018-09-29T10:09:21.162Z,8.80
2018-09-29T10:10:19.288Z,8.20
2018-09-29T10:11:19.232Z,7.50
2018-09-29T10:12:19.220Z,6.20
2018-09-29T10:13:19.206Z,6.30
2018-09-29T10:14:19.195Z,7.30
2018-09-29T10:15:19.186Z,7.40
2018-09-29T10:16:19.199Z,7.30
2018-09-29T10:17:19.194Z,4.70
2018-09-29T10:18:19.198Z,5.50
2018-09-29T10:19:19.176Z,6.20
2018-09-29T10:20:19.187Z,7.30
2018-09-29T10:21:19.146Z,6.90
2018-09-29T10:22:19.115Z,5.60
2018-09-29T10:23:19.108Z,7.20
2018-09-29T10:24:19.091Z,5.90
2018-09-29T10:25:19.080Z,7.60
2018-09-29T10:26:19.086Z,8.10
2018-09-29T10:27:19.060Z,7.90
2018-09-29T10:28:19.054Z,5.20
2018-09-29T10:29:19.040Z,4.70
2018-09-29T10:30:19.088Z,5.10
2018-09-29T10:31:19.036Z,8.70
2018-09-29T10:32:19.008Z,7.30
2018-09-29T10:33:18.989Z,3.60
2018-09-29T10:34:19.050Z,6.40
2018-09-29T10:35:18.972Z,5.50
2018-09-29T10:36:19.039Z,3.40
2018-09-29T10:37:18.953Z,6.00
2018-09-29T10:38:18.938Z,5.20
2018-09-29T10:39:18.931Z,5.30
2018-09-29T10:40:18.974Z,6.60
2018-09-29T10:41:18.972Z,5.90
2018-09-29T10:42:18.932Z,6.30
2018-09-29T10:43:18.886Z,6.50
2018-09-29T10:44:19.043Z,4.90
2018-09-29T10:45:18.865Z,5.50
2018-09-29T10:46:18.868Z,4.80
2018-09-29T10:47:18.841Z,4.80
2018-09-29T10:48:18.850Z,5.30
2018-09-29T10:49:18.823Z,6.90
2018-09-29T10:50:18.819Z,7.50
2018-09-29T10:51:18.802Z,4.70
2018-09-29T10:52:18.806Z,4.10
2018-09-29T10:53:18.777Z,8.60
2018-09-29T10:54:18.772Z,5.70
2018-09-29T10:55:18.775Z,5.90
2018-09-29T10:56:18.759Z,4.90
2018-09-29T10:57:18.730Z,5.40
2018-09-29T10:58:18.718Z,5.20
2018-09-29T10:59:18.709Z,4.90
2018-09-29T11:00:18.734Z,7.80
2018-09-29T11:01:18.710Z,4.60
2018-09-29T11:02:18.685Z,6.50
2018-09-29T11:03:18.681Z,5.00
2018-09-29T11:04:18.655Z,4.10
2018-09-29T11:05:18.646Z,4.90
2018-09-29T11:06:18.654Z,3.50
2018-09-29T11:07:18.646Z,4.60
2018-09-29T11:08:18.631Z,4.90
2018-09-29T11:09:18.608Z,4.30
2018-09-29T11:10:18.594Z,5.20
2018-09-29T11:11:18.583Z,5.80
2018-09-29T11:12:18.591Z,4.80
2018-09-29T11:13:18.566Z,4.90
2018-09-29T11:14:18.563Z,5.00
2018-09-29T11:15:18.620Z,6.00
2018-09-29T11:16:18.547Z,6.00
2018-09-29T11:17:18.546Z,6.70
2018-09-29T11:18:18.504Z,6.30
2018-09-29T11:19:18.495Z,5.00
2018-09-29T11:20:18.486Z,5.50
2018-09-29T11:21:18.480Z,5.50
2018-09-29T11:22:18.538Z,6.10
2018-09-29T11:23:18.456Z,4.90
2018-09-29T11:24:18.443Z,5.40
2018-09-29T11:25:18.430Z,4.80
2018-09-29T11:26:18.444Z,5.20
2018-09-29T11:27:18.416Z,6.30
2018-09-29T11:28:18.427Z,4.40
2018-09-29T11:29:18.412Z,7.60
2018-09-29T11:30:18.376Z,5.50
2018-09-29T11:31:18.413Z,7.00
2018-09-29T11:32:18.366Z,4.80
2018-09-29T11:33:18.354Z,6.40
2018-09-29T11:34:18.413Z,5.00
2018-09-29T11:35:18.328Z,6.20
2018-09-29T11:36:18.315Z,4.50
2018-09-29T11:37:18.348Z,4.50
2018-09-29T11:38:18.292Z,6.00
2018-09-29T11:39:18.332Z,5.00
2018-09-29T11:40:18.274Z,4.20
2018-09-29T11:41:18.266Z,5.30
2018-09-29T11:42:18.269Z,6.20
2018-09-29T11:43:18.275Z,6.10
2018-09-29T11:44:18.231Z,7.30
2018-09-29T11:45:18.228Z,5.20
2018-09-29T11:46:18.212Z,6.50
2018-09-29T11:47:18.215Z,4.80
2018-09-29T11:48:18.196Z,5.40
2018-09-29T11:49:18.172Z,6.10
2018-09-29T11:50:18.182Z,4.70
2018-09-29T11:51:18.177Z,6.00
2018-09-29T11:52:18.146Z,6.60
2018-09-29T11:53:18.142Z,4.10
2018-09-29T11:54:18.137Z,6.20
2018-09-29T11:55:18.139Z,6.20
2018-09-29T11:56:18.170Z,5.50
2018-09-29T11:57:18.114Z,5.60
2018-09-29T11:58:18.084Z,5.90
2018-09-29T11:59:18.089Z,4.80
2018-09-29T12:00:18.057Z,5.20
2018-09-29T12:01:18.043Z,5.00
2018-09-29T12:02:18.125Z,5.50
2018-09-29T12:03:18.096Z,6.00
2018-09-29T12:04:18.041Z,6.30
2018-09-29T12:05:18.020Z,7.70
2018-09-29T12:06:18.064Z,5.40
2018-09-29T12:07:18.017Z,6.20
2018-09-29T12:08:17.991Z,6.70
2018-09-29T12:09:17.959Z,5.70
2018-09-29T12:10:17.950Z,7.70
2018-09-29T12:11:17.959Z,7.00
2018-09-29T12:12:17.941Z,4.90
2018-09-29T12:13:17.921Z,6.60
2018-09-29T12:14:17.908Z,5.80
2018-09-29T12:15:17.918Z,5.40
2018-09-29T12:16:17.888Z,6.60
2018-09-29T12:17:17.879Z,4.60
2018-09-29T12:18:17.885Z,6.40
2018-09-29T12:19:17.856Z,5.60
2018-09-29T12:20:17.846Z,4.60
2018-09-29T12:21:17.849Z,7.20
2018-09-29T12:22:17.826Z,5.80
2018-09-29T12:23:17.829Z,6.00
2018-09-29T12:24:17.822Z,4.10
2018-09-29T12:25:17.817Z,4.80
2018-09-29T12:26:17.790Z,5.10
2018-09-29T12:27:17.775Z,3.60
2018-09-29T12:28:17.777Z,5.20
2018-09-29T12:29:17.749Z,5.00
2018-09-29T12:30:17.745Z,5.00
2018-09-29T12:31:17.729Z,6.00
2018-09-29T12:32:17.714Z,5.90
2018-09-29T12:33:17.731Z,5.20
2018-09-29T12:34:17.691Z,6.40
2018-09-29T12:35:17.683Z,3.10
2018-09-29T12:36:17.691Z,3.90
2018-09-29T12:37:17.800Z,6.50
2018-09-29T12:38:17.686Z,6.60
2018-09-29T12:39:17.643Z,5.90
2018-09-29T12:40:17.640Z,5.30
2018-09-29T12:41:17.637Z,7.60
2018-09-29T12:42:17.663Z,3.90
2018-09-29T12:43:17.599Z,5.50
2018-09-29T12:44:17.727Z,3.70
2018-09-29T12:45:17.605Z,5.80
2018-09-29T12:46:17.609Z,4.90
2018-09-29T12:47:17.553Z,5.30
2018-09-29T12:48:17.545Z,4.40
2018-09-29T12:49:17.586Z,5.60
2018-09-29T12:50:17.552Z,6.50
2018-09-29T12:51:17.561Z,6.30
2018-09-29T12:52:17.513Z,5.90
2018-09-29T12:53:17.504Z,6.00
2018-09-29T12:54:17.474Z,4.40
2018-09-29T12:55:17.486Z,5.60
2018-09-29T12:56:17.476Z,5.30
2018-09-29T12:57:17.450Z,7.00
2018-09-29T12:58:17.446Z,5.50
2018-09-29T12:59:17.426Z,5.30
2018-09-29T13:00:17.417Z,5.10